createdAt,value
2018-07-02T00:00:39.527Z,100052.40
2018-07-02T00:03:09.204Z,100058.63
2018-07-02T00:05:50.563Z,100050.71
2018-07-02T00:08:20.196Z,100054.92
2018-07-02T00:10:51.397Z,100049.89
2018-07-02T00:13:21.275Z,100050.41
2018-07-02T00:15:51.107Z,100051.06
2018-07-02T00:18:21.110Z,100045.59
2018-07-02T00:20:50.855Z,100050.25
2018-07-02T00:23:20.946Z,100046.31
2018-07-02T00:25:50.867Z,100042.91
2018-07-02T00:28:20.832Z,100047.42
2018-07-02T00:30:50.752Z,100042.62
2018-07-02T00:33:21.251Z,100044.87
2018-07-02T00:35:51.241Z,100041.75
2018-07-02T00:38:21.790Z,100043.59
2018-07-02T00:40:51.807Z,100053.14
2018-07-02T00:43:21.620Z,100054.56
2018-07-02T00:45:51.594Z,100048.41
2018-07-02T00:48:21.359Z,100050.05
2018-07-02T00:50:51.483Z,100053.23
2018-07-02T00:53:21.407Z,100050.77
2018-07-02T00:55:51.605Z,100053.19
2018-07-02T00:58:21.680Z,100054.27
2018-07-02T01:00:52.291Z,100058.87
2018-07-02T01:03:22.268Z,100051.64
2018-07-02T01:05:52.044Z,100052.44
2018-07-02T01:08:21.895Z,100054.14
2018-07-02T01:10:51.843Z,100047.56
2018-07-02T01:13:21.508Z,100042.61
2018-07-02T01:15:51.208Z,100047.11
2018-07-02T01:18:20.910Z,100048.25
2018-07-02T01:20:50.851Z,100052.70
2018-07-02T01:23:20.284Z,100052.19
2018-07-02T01:25:50.003Z,100048.50
2018-07-02T01:28:20.304Z,100047.77
2018-07-02T01:30:50.052Z,100046.86
2018-07-02T01:33:19.991Z,100048.25
2018-07-02T01:35:49.821Z,100041.56
2018-07-02T01:38:20.371Z,100041.41
2018-07-02T01:40:50.321Z,100039.09
2018-07-02T01:43:20.386Z,100041.24
2018-07-02T01:45:50.449Z,100046.23
2018-07-02T01:48:20.556Z,100040.95
2018-07-02T01:50:50.258Z,100042.22
2018-07-02T01:53:20.387Z,100038.94
2018-07-02T01:55:50.575Z,100038.05
2018-07-02T01:58:20.733Z,100032.66
2018-07-02T02:00:50.883Z,100036.81
2018-07-02T02:03:20.376Z,100033.72
2018-07-02T02:05:50.644Z,100035.76
2018-07-02T02:08:20.809Z,100039.48
2018-07-02T02:10:50.651Z,100042.23
2018-07-02T02:13:20.639Z,100044.11
2018-07-02T02:15:50.579Z,100043.87
2018-07-02T02:18:20.403Z,100054.05
2018-07-02T02:20:50.431Z,100043.67
2018-07-02T02:23:20.504Z,100044.73
2018-07-02T02:25:50.259Z,100044.97
2018-07-02T02:28:20.055Z,100045.04
2018-07-02T02:30:49.775Z,100049.22
2018-07-02T02:33:20.151Z,100044.56
2018-07-02T02:35:49.977Z,100050.75
2018-07-02T02:38:19.797Z,100050.05
2018-07-02T02:40:49.713Z,100051.81
2018-07-02T02:43:19.675Z,100050.44
2018-07-02T02:45:49.637Z,100055.06
2018-07-02T02:48:19.649Z,100056.00
2018-07-02T02:50:49.919Z,100057.80
2018-07-02T02:53:19.667Z,100057.54
2018-07-02T02:55:49.572Z,100059.06
2018-07-02T02:58:19.696Z,100054.83
2018-07-02T03:00:49.833Z,100051.85
2018-07-02T03:03:19.284Z,100057.45
2018-07-02T03:05:49.155Z,100054.39
2018-07-02T03:08:19.359Z,100052.38
2018-07-02T03:10:49.388Z,100054.72
2018-07-02T03:13:19.849Z,100051.36
2018-07-02T03:15:49.856Z,100048.78
2018-07-02T03:18:19.784Z,100054.37
2018-07-02T03:20:50.520Z,100054.45
2018-07-02T03:23:20.680Z,100051.89
2018-07-02T03:25:51.296Z,100059.08
2018-07-02T03:28:21.081Z,100056.78
2018-07-02T03:30:51.118Z,100054.56
2018-07-02T03:33:21.779Z,100050.95
2018-07-02T03:35:51.919Z,100054.67
2018-07-02T03:38:21.924Z,100053.06
2018-07-02T03:40:51.952Z,100057.72
2018-07-02T03:43:21.732Z,100055.38
2018-07-02T03:45:51.484Z,100053.76
2018-07-02T03:48:21.058Z,100054.39
2018-07-02T03:50:51.263Z,100052.16
2018-07-02T03:53:21.416Z,100045.84
2018-07-02T03:55:51.537Z,100048.69
2018-07-02T03:58:21.468Z,100047.58
2018-07-02T04:00:51.374Z,100054.98
2018-07-02T04:03:21.653Z,100047.90
2018-07-02T04:05:51.585Z,100044.21
2018-07-02T04:08:21.964Z,100047.39
2018-07-02T04:10:51.879Z,100051.70
2018-07-02T04:13:21.587Z,100047.19
2018-07-02T04:15:51.703Z,100047.80
2018-07-02T04:18:21.195Z,100045.09
2018-07-02T04:20:51.949Z,100052.69
2018-07-02T04:23:21.972Z,100051.41
2018-07-02T04:25:52.164Z,100056.70
2018-07-02T04:28:22.100Z,100057.27
2018-07-02T04:30:52.246Z,100058.40
2018-07-02T04:33:22.168Z,100057.00
2018-07-02T04:35:51.897Z,100057.32
2018-07-02T04:38:21.836Z,100057.10
2018-07-02T04:40:51.693Z,100059.41
2018-07-02T04:43:22.151Z,100056.84
2018-07-02T04:45:52.243Z,100050.57
2018-07-02T04:48:22.511Z,100050.92
2018-07-02T04:50:52.555Z,100060.30
2018-07-02T04:53:22.537Z,100057.55
2018-07-02T04:55:52.495Z,100061.93
2018-07-02T04:58:22.580Z,100056.48
2018-07-02T05:00:52.605Z,100051.72
2018-07-02T05:03:22.427Z,100057.05
2018-07-02T05:05:52.324Z,100056.59
2018-07-02T05:08:22.192Z,100057.50
2018-07-02T05:10:52.031Z,100056.39
2018-07-02T05:13:21.799Z,100059.27
2018-07-02T05:15:51.711Z,100047.95
2018-07-02T05:18:22.303Z,100057.09
2018-07-02T05:20:52.356Z,100054.91
2018-07-02T05:23:22.706Z,100053.95
2018-07-02T05:25:53.144Z,100055.48
2018-07-02T05:28:23.457Z,100048.30
2018-07-02T05:30:53.808Z,100045.58
2018-07-02T05:33:24.136Z,100043.95
2018-07-02T05:35:54.484Z,100048.29
2018-07-02T05:38:24.856Z,100043.38
2018-07-02T05:40:55.187Z,100043.75
2018-07-02T05:43:25.496Z,100039.41
2018-07-02T05:45:55.772Z,100045.48
2018-07-02T05:48:26.102Z,100039.75
2018-07-02T05:50:56.391Z,100037.09
2018-07-02T05:53:26.671Z,100037.84
2018-07-02T05:55:56.954Z,100038.44
2018-07-02T05:58:27.304Z,100036.58
2018-07-02T06:00:57.592Z,100035.45
2018-07-02T06:03:27.889Z,100036.81
2018-07-02T06:05:57.944Z,100033.05
2018-07-02T06:08:28.180Z,100035.54
2018-07-02T06:10:58.491Z,100036.97
2018-07-02T06:13:28.508Z,100040.66
2018-07-02T06:15:58.845Z,100035.70
2018-07-02T06:18:28.613Z,100038.00
2018-07-02T06:20:58.875Z,100037.61
2018-07-02T06:23:29.303Z,100031.97
2018-07-02T06:25:59.296Z,100026.03
2018-07-02T06:28:29.603Z,100041.15
2018-07-02T06:30:59.894Z,100043.16
2018-07-02T06:33:30.184Z,100044.72
2018-07-02T06:36:00.456Z,100043.44
2018-07-02T06:38:30.740Z,100045.45
2018-07-02T06:41:01.072Z,100046.11
2018-07-02T06:43:31.418Z,100046.07
2018-07-02T06:46:01.756Z,100041.17
2018-07-02T06:48:31.846Z,100045.92
2018-07-02T06:51:01.980Z,100044.77
2018-07-02T06:53:32.096Z,100047.44
2018-07-02T06:56:02.080Z,100046.89
2018-07-02T06:58:32.084Z,100054.80
2018-07-02T07:01:02.064Z,100048.54
2018-07-02T07:03:31.760Z,100046.70
2018-07-02T07:06:01.524Z,100040.13
2018-07-02T07:08:31.609Z,100040.76
2018-07-02T07:11:01.867Z,100042.48
2018-07-02T07:13:31.860Z,100051.83
2018-07-02T07:16:01.918Z,100044.31
2018-07-02T07:18:31.969Z,100047.75
2018-07-02T07:21:02.010Z,100048.91
2018-07-02T07:23:32.060Z,100047.52
2018-07-02T07:26:02.060Z,100050.84
2018-07-02T07:28:32.076Z,100049.68
2018-07-02T07:31:02.065Z,100051.04
2018-07-02T07:33:32.156Z,100039.33
2018-07-02T07:36:02.196Z,100042.40
2018-07-02T07:38:34.044Z,100042.44
2018-07-02T07:41:03.792Z,100041.47
2018-07-02T07:43:33.813Z,100039.08
2018-07-02T07:46:04.124Z,100043.86
2018-07-02T07:48:34.461Z,100037.61
2018-07-02T07:53:45.556Z,100032.45
2018-07-02T07:56:15.295Z,100042.16
2018-07-02T07:58:45.616Z,100044.17
2018-07-02T08:01:15.934Z,100041.09
2018-07-02T08:03:46.058Z,100028.07
2018-07-02T08:06:16.536Z,100030.95
2018-07-02T08:08:46.683Z,100026.70
2018-07-02T08:11:16.752Z,100028.91
2018-07-02T08:13:46.907Z,100023.84
2018-07-02T08:16:17.045Z,100014.06
2018-07-02T08:18:47.183Z,100027.34
2018-07-02T08:21:17.480Z,100023.19
2018-07-02T08:23:47.487Z,100022.12
2018-07-02T08:26:17.806Z,100034.91
2018-07-02T08:28:48.127Z,100024.55
2018-07-02T08:31:18.832Z,100027.13
2018-07-02T08:33:49.184Z,100022.91
2018-07-02T08:36:19.537Z,100025.55
2018-07-02T08:38:49.859Z,100019.53
2018-07-02T08:41:20.170Z,100025.11
2018-07-02T08:43:50.458Z,100029.82
2018-07-02T08:46:20.780Z,100023.97
2018-07-02T08:48:50.792Z,100027.17
2018-07-02T08:51:20.872Z,100018.92
2018-07-02T08:53:51.085Z,100013.11
2018-07-02T08:56:21.495Z,100010.04
2018-07-02T08:58:52.227Z,100016.61
2018-07-02T09:01:22.620Z,100007.27
2018-07-02T09:03:52.890Z,100009.31
2018-07-02T09:06:23.189Z,100006.28
2018-07-02T09:08:53.514Z,99996.39
2018-07-02T09:11:23.813Z,99995.04
2018-07-02T09:16:40.655Z,99991.44
2018-07-02T09:19:10.913Z,99990.19
2018-07-02T09:21:41.248Z,99991.00
2018-07-02T09:24:11.517Z,100002.20
2018-07-02T09:26:41.846Z,99988.97
2018-07-02T09:29:12.133Z,99997.11
2018-07-02T09:31:42.460Z,99991.10
2018-07-02T09:34:12.740Z,99988.50
2018-07-02T09:36:43.060Z,99991.16
2018-07-02T09:39:13.992Z,99982.64
2018-07-02T09:41:44.472Z,99984.85
2018-07-02T09:44:15.227Z,99984.64
2018-07-02T09:46:45.549Z,99984.27
2018-07-02T09:49:15.901Z,99979.64
2018-07-02T09:51:46.483Z,99984.59
2018-07-02T09:54:16.816Z,99980.53
2018-07-02T09:56:47.147Z,99973.86
2018-07-02T09:59:17.498Z,99979.00
2018-07-02T10:01:48.388Z,99981.86
2018-07-02T10:04:19.448Z,99987.95
2018-07-02T10:06:50.376Z,99979.55
2018-07-02T10:09:21.460Z,99976.05
2018-07-02T10:11:52.371Z,99986.44
2018-07-02T10:14:23.774Z,99987.66
2018-07-02T10:16:54.116Z,99982.95
2018-07-02T10:19:24.435Z,99986.86
2018-07-02T10:21:54.824Z,99982.92
2018-07-02T10:24:25.124Z,99981.84
2018-07-02T10:26:55.518Z,99981.10
2018-07-02T10:29:25.845Z,99980.96
2018-07-02T10:31:56.377Z,99979.87
2018-07-02T10:34:26.809Z,99985.90
2018-07-02T10:36:57.097Z,99981.70
2018-07-02T10:39:27.150Z,99988.44
2018-07-02T10:41:57.507Z,99980.41
2018-07-02T10:44:27.835Z,99986.89
2018-07-02T10:46:58.215Z,99982.08
2018-07-02T10:49:28.561Z,99982.39
2018-07-02T10:51:58.868Z,99977.22
2018-07-02T10:54:29.230Z,99984.81
2018-07-02T10:56:59.520Z,99984.11
2018-07-02T10:59:30.199Z,99984.67
2018-07-02T11:02:00.524Z,99983.23
2018-07-02T11:04:30.832Z,99979.16
2018-07-02T11:07:01.161Z,99981.13
2018-07-02T11:09:31.670Z,99979.33
2018-07-02T11:12:02.045Z,99971.48
2018-07-02T11:14:32.354Z,99973.48
2018-07-02T11:17:02.724Z,99970.31
2018-07-02T11:19:33.233Z,99967.89
2018-07-02T11:22:03.876Z,99969.03
2018-07-02T11:24:34.300Z,99968.95
2018-07-02T11:27:04.331Z,99972.88
2018-07-02T11:29:34.703Z,99967.36
2018-07-02T11:32:05.404Z,99970.70
2018-07-02T11:34:35.779Z,99965.76
2018-07-02T11:37:06.508Z,99972.98
2018-07-02T11:39:36.856Z,99973.13
2018-07-02T11:42:08.148Z,99970.65
2018-07-02T11:44:38.487Z,99966.45
2018-07-02T11:47:08.800Z,99965.30
2018-07-02T11:49:39.204Z,99972.83
2018-07-02T11:52:09.677Z,99966.17
2018-07-02T11:54:40.021Z,99966.28
2018-07-02T11:57:10.376Z,99968.53
2018-07-02T11:59:40.713Z,99975.36
2018-07-02T12:02:11.032Z,99974.84
2018-07-02T12:04:41.336Z,99968.63
2018-07-02T12:07:11.695Z,99970.02
2018-07-02T12:09:42.187Z,99967.62
2018-07-02T12:12:12.310Z,99974.30
2018-07-02T12:14:42.626Z,99970.61
2018-07-02T12:17:12.961Z,99973.61
2018-07-02T12:19:43.364Z,99978.35
2018-07-02T12:22:13.692Z,99969.75
2018-07-02T12:24:44.107Z,99968.97
2018-07-02T12:27:14.131Z,99969.67
2018-07-02T12:29:44.453Z,99969.75
2018-07-02T12:32:14.764Z,99972.55
2018-07-02T12:34:45.056Z,99961.70
2018-07-02T12:37:15.476Z,99965.00
2018-07-02T12:39:45.803Z,99957.73
2018-07-02T12:42:16.153Z,99956.27
2018-07-02T12:44:46.497Z,99961.48
2018-07-02T12:47:16.824Z,99958.95
2018-07-02T12:49:47.188Z,99963.37
2018-07-02T12:52:17.495Z,99965.10
2018-07-02T12:54:47.842Z,99956.83
2018-07-02T12:57:18.138Z,99958.98
2018-07-02T12:59:48.245Z,99956.52
2018-07-02T13:02:18.029Z,99961.62
2018-07-02T13:04:48.524Z,99961.88
2018-07-02T13:07:18.839Z,99952.28
2018-07-02T13:09:49.308Z,99952.60
2018-07-02T13:12:19.631Z,99950.31
2018-07-02T13:14:49.644Z,99950.07
2018-07-02T13:17:19.977Z,99953.66
2018-07-02T13:19:50.347Z,99954.67
2018-07-02T13:22:20.672Z,99955.37
2018-07-02T13:24:51.091Z,99954.87
2018-07-02T13:27:21.757Z,99961.34
2018-07-02T13:29:52.178Z,99956.61
2018-07-02T13:32:22.707Z,99950.39
2018-07-02T13:34:53.347Z,99959.52
2018-07-02T13:37:23.652Z,99946.99
2018-07-02T13:39:54.040Z,99944.33
2018-07-02T13:42:24.332Z,99946.08
2018-07-02T13:44:54.633Z,99936.96
2018-07-02T13:47:24.976Z,99934.92
2018-07-02T13:49:55.684Z,99939.42
2018-07-02T13:52:25.440Z,99937.44
2018-07-02T13:54:55.193Z,99929.73
2018-07-02T13:57:24.951Z,99928.42
2018-07-02T13:59:54.664Z,99932.71
2018-07-02T14:02:24.434Z,99924.70
2018-07-02T14:04:54.485Z,99928.05
2018-07-02T14:07:24.795Z,99923.95
2018-07-02T14:09:54.753Z,99923.85
2018-07-02T14:12:24.509Z,99928.28
2018-07-02T14:14:54.832Z,99929.72
2018-07-02T14:17:25.116Z,99919.58
2018-07-02T14:19:54.992Z,99925.37
2018-07-02T14:22:25.900Z,99922.16
2018-07-02T14:24:55.736Z,99924.28
2018-07-02T14:27:25.645Z,99926.45
2018-07-02T14:29:55.585Z,99924.58
2018-07-02T14:32:25.401Z,99924.27
2018-07-02T14:34:55.270Z,99920.56
2018-07-02T14:37:25.032Z,99915.22
2018-07-02T14:39:54.904Z,99921.70
2018-07-02T14:42:24.847Z,99920.05
2018-07-02T14:44:56.110Z,99927.02
2018-07-02T14:47:26.692Z,99925.07
2018-07-02T14:49:57.039Z,99921.48
2018-07-02T14:52:28.132Z,99923.88
2018-07-02T14:54:58.695Z,99923.83
2018-07-02T14:57:29.009Z,99920.88
2018-07-02T14:59:59.533Z,99928.70
2018-07-02T15:02:30.315Z,99915.75
2018-07-02T15:05:00.933Z,99913.60
2018-07-02T15:07:31.186Z,99913.22
2018-07-02T15:10:01.492Z,99916.23
2018-07-02T15:12:31.784Z,99916.48
2018-07-02T15:15:02.146Z,99917.70
2018-07-02T15:17:32.771Z,99918.08
2018-07-02T15:20:03.813Z,99913.03
2018-07-02T15:22:34.124Z,99915.76
2018-07-02T15:25:04.553Z,99912.34
2018-07-02T15:27:34.860Z,99905.67
2018-07-02T15:30:05.336Z,99897.59
2018-07-02T15:32:35.693Z,99907.52
2018-07-02T15:35:05.968Z,99900.38
2018-07-02T15:37:36.275Z,99901.39
2018-07-02T15:40:06.711Z,99896.11
2018-07-02T15:42:37.080Z,99892.45
2018-07-02T15:45:07.478Z,99891.19
2018-07-02T15:47:37.543Z,99883.67
2018-07-02T15:50:07.895Z,99879.56
2018-07-02T15:52:38.213Z,99882.61
2018-07-02T15:55:08.516Z,99883.98
2018-07-02T15:57:38.860Z,99877.66
2018-07-02T16:00:09.281Z,99882.86
2018-07-02T16:02:39.379Z,99881.94
2018-07-02T16:05:09.763Z,99883.20
2018-07-02T16:07:40.117Z,99881.19
2018-07-02T16:10:10.560Z,99879.42
2018-07-02T16:12:40.942Z,99888.86
2018-07-02T16:15:11.283Z,99882.94
2018-07-02T16:17:41.589Z,99880.88
2018-07-02T16:20:11.351Z,99875.76
2018-07-02T16:22:41.680Z,99877.77
2018-07-02T16:25:12.183Z,99883.84
2018-07-02T16:27:42.564Z,99874.31
2018-07-02T16:30:13.062Z,99870.84
2018-07-02T16:32:43.608Z,99872.78
2018-07-02T16:35:13.468Z,99871.42
2018-07-02T16:37:43.870Z,99871.95
2018-07-02T16:40:14.765Z,99871.13
2018-07-02T16:42:44.777Z,99871.72
2018-07-02T16:45:14.650Z,99868.59
2018-07-02T16:47:44.420Z,99864.04
2018-07-02T16:50:14.163Z,99862.94
2018-07-02T16:52:44.892Z,99865.17
2018-07-02T16:55:14.637Z,99864.64
2018-07-02T16:57:44.828Z,99864.37
2018-07-02T17:00:15.194Z,99864.77
2018-07-02T17:02:46.012Z,99862.64
2018-07-02T17:05:15.971Z,99865.91
2018-07-02T17:07:45.864Z,99862.69
2018-07-02T17:10:15.939Z,99869.50
2018-07-02T17:12:45.705Z,99865.50
2018-07-02T17:15:15.527Z,99870.45
2018-07-02T17:17:45.340Z,99868.37
2018-07-02T17:20:15.280Z,99868.41
2018-07-02T17:22:45.240Z,99859.20
2018-07-02T17:25:15.021Z,99860.54
2018-07-02T17:27:44.756Z,99852.69
2018-07-02T17:30:14.596Z,99855.88
2018-07-02T17:32:44.346Z,99858.07
2018-07-02T17:35:14.827Z,99857.56
2018-07-02T17:37:44.724Z,99858.38
2018-07-02T17:40:14.608Z,99855.39
2018-07-02T17:42:44.428Z,99858.41
2018-07-02T17:45:15.046Z,99863.81
2018-07-02T17:47:45.006Z,99864.91
2018-07-02T17:50:14.897Z,99862.20
2018-07-02T17:52:45.368Z,99856.27
2018-07-02T17:55:15.259Z,99857.60
2018-07-02T17:57:45.121Z,99854.89
2018-07-02T18:00:14.968Z,99855.98
2018-07-02T18:02:45.402Z,99857.90
2018-07-02T18:05:15.589Z,99861.13
2018-07-02T18:07:45.376Z,99858.16
2018-07-02T18:10:15.264Z,99854.89
2018-07-02T18:12:45.316Z,99855.42
2018-07-02T18:15:15.381Z,99859.50
2018-07-02T18:17:45.971Z,99861.38
2018-07-02T18:20:16.085Z,99860.84
2018-07-02T18:22:45.905Z,99857.03
2018-07-02T18:25:15.659Z,99857.03
2018-07-02T18:27:45.376Z,99851.33
2018-07-02T18:30:15.484Z,99854.58
2018-07-02T18:32:45.272Z,99855.38
2018-07-02T18:35:14.996Z,99862.19
2018-07-02T18:37:44.724Z,99863.56
2018-07-02T18:40:14.459Z,99857.06
2018-07-02T18:42:44.192Z,99859.79
2018-07-02T18:45:13.950Z,99858.70
2018-07-02T18:47:43.656Z,99861.16
2018-07-02T18:50:13.381Z,99860.06
2018-07-02T18:52:43.475Z,99860.26
2018-07-02T18:55:13.199Z,99862.91
2018-07-02T18:57:42.942Z,99862.81
2018-07-02T19:00:12.719Z,99857.23
2018-07-02T19:02:42.432Z,99864.66
2018-07-02T19:05:12.201Z,99860.69
2018-07-02T19:07:42.202Z,99866.19
2018-07-02T19:10:12.129Z,99864.08
2018-07-02T19:12:41.582Z,99872.77
2018-07-02T19:15:11.348Z,99871.74
2018-07-02T19:17:41.100Z,99872.28
2018-07-02T19:20:10.869Z,99874.81
2018-07-02T19:22:40.355Z,99875.11
2018-07-02T19:25:10.185Z,99885.57
2018-07-02T19:27:39.976Z,99879.09
2018-07-02T19:30:09.737Z,99877.48
2018-07-02T19:32:39.471Z,99875.12
2018-07-02T19:35:09.224Z,99877.88
2018-07-02T19:37:38.935Z,99885.51
2018-07-02T19:40:08.956Z,99882.08
2018-07-02T19:42:38.704Z,99884.84
2018-07-02T19:45:08.460Z,99887.81
2018-07-02T19:47:38.215Z,99888.44
2018-07-02T19:50:08.021Z,99888.77
2018-07-02T19:52:37.796Z,99892.13
2018-07-02T19:55:07.414Z,99891.20
2018-07-02T19:57:37.712Z,99889.23
2018-07-02T20:00:07.627Z,99887.60
2018-07-02T20:02:37.399Z,99884.34
2018-07-02T20:05:07.244Z,99893.59
2018-07-02T20:07:37.008Z,99888.22
2018-07-02T20:10:06.736Z,99886.37
2018-07-02T20:12:36.326Z,99887.78
2018-07-02T20:15:06.101Z,99882.47
2018-07-02T20:17:35.856Z,99882.22
2018-07-02T20:20:09.507Z,99884.97
2018-07-02T20:22:39.219Z,99879.88
2018-07-02T20:25:09.503Z,99882.67
2018-07-02T20:27:39.561Z,99888.97
2018-07-02T20:30:10.372Z,99885.56
2018-07-02T20:32:40.076Z,99882.88
2018-07-02T20:35:10.171Z,99888.87
2018-07-02T20:37:39.923Z,99881.96
2018-07-02T20:40:09.676Z,99884.84
2018-07-02T20:42:39.285Z,99883.39
2018-07-02T20:45:09.714Z,99885.73
2018-07-02T20:47:39.756Z,99888.94
2018-07-02T20:50:09.512Z,99887.61
2018-07-02T20:52:39.227Z,99888.89
2018-07-02T20:55:09.274Z,99888.25
2018-07-02T20:57:38.968Z,99890.86
2018-07-02T21:00:09.117Z,99883.73
2018-07-02T21:02:38.832Z,99883.65
2018-07-02T21:05:08.678Z,99888.66
2018-07-02T21:07:38.576Z,99885.60
2018-07-02T21:10:08.379Z,99883.28
2018-07-02T21:12:38.129Z,99884.20
2018-07-02T21:15:07.924Z,99880.72
2018-07-02T21:17:37.644Z,99880.30
2018-07-02T21:20:07.428Z,99882.67
2018-07-02T21:22:37.168Z,99876.47
2018-07-02T21:25:06.972Z,99875.41
2018-07-02T21:27:36.502Z,99875.41
2018-07-02T21:30:07.783Z,99879.91
2018-07-02T21:32:38.136Z,99871.19
2018-07-02T21:35:08.723Z,99878.20
2018-07-02T21:37:38.444Z,99881.43
2018-07-02T21:40:08.625Z,99881.36
2018-07-02T21:42:38.398Z,99878.87
2018-07-02T21:45:08.175Z,99884.22
2018-07-02T21:47:37.983Z,99884.75
2018-07-02T21:50:07.783Z,99880.28
2018-07-02T21:52:37.619Z,99878.05
2018-07-02T21:55:07.392Z,99878.95
2018-07-02T21:57:37.124Z,99874.92
2018-07-02T22:00:09.874Z,99867.87
2018-07-02T22:02:39.385Z,99869.17
2018-07-02T22:05:09.384Z,99871.59
2018-07-02T22:07:39.382Z,99870.05
2018-07-02T22:10:09.213Z,99871.80
2018-07-02T22:12:39.172Z,99864.26
2018-07-02T22:15:08.928Z,99865.73
2018-07-02T22:17:38.652Z,99866.17
2018-07-02T22:20:08.852Z,99859.83
2018-07-02T22:22:38.581Z,99864.77
2018-07-02T22:25:08.079Z,99864.08
2018-07-02T22:27:37.536Z,99859.06
2018-07-02T22:30:07.557Z,99862.48
2018-07-02T22:32:36.996Z,99860.88
2018-07-02T22:35:07.005Z,99852.99
2018-07-02T22:37:36.575Z,99857.72
2018-07-02T22:40:06.412Z,99855.31
2018-07-02T22:42:36.172Z,99853.25
2018-07-02T22:45:06.048Z,99852.75
2018-07-02T22:47:35.778Z,99853.36
2018-07-02T22:50:05.768Z,99849.25
2018-07-02T22:52:35.528Z,99850.48
2018-07-02T22:55:05.297Z,99853.92
2018-07-02T22:57:35.073Z,99846.40
2018-07-02T23:00:05.303Z,99849.67
2018-07-02T23:02:34.463Z,99850.20
2018-07-02T23:05:03.989Z,99845.61
2018-07-02T23:07:33.452Z,99846.70
2018-07-02T23:10:03.405Z,99846.21
2018-07-02T23:12:33.131Z,99843.52
2018-07-02T23:15:02.812Z,99838.13
2018-07-02T23:17:32.268Z,99837.05
2018-07-02T23:20:01.963Z,99838.13
2018-07-02T23:22:41.624Z,99840.30
2018-07-02T23:25:11.089Z,99837.67
2018-07-02T23:27:40.764Z,99834.11
2018-07-02T23:30:10.483Z,99837.62
2018-07-02T23:32:40.203Z,99840.36
2018-07-02T23:35:09.632Z,99841.02
2018-07-02T23:37:39.387Z,99846.09
2018-07-02T23:40:08.809Z,99843.64
2018-07-02T23:42:38.523Z,99840.66
2018-07-02T23:45:08.252Z,99848.14
2018-07-02T23:47:37.711Z,99846.84
2018-07-02T23:50:07.407Z,99837.84
2018-07-02T23:52:37.541Z,99841.97
2018-07-02T23:55:07.705Z,99843.69
2018-07-02T23:57:37.459Z,99845.61
